Time;durP1;ratioP1;P1;durP2;ratioP2;P2;SDS_P1;SDS_P2;PMS_P1;PMS_P2;Temp;Humidity;BMP_temperature;BMP_pressure;BME280_temperature;BME280_humidity;BME280_pressure;Samples;Min_cycle;Max_cycle;Signal;HPM_P1;HPM_P2
2022/05/30 00:02:22;;;;;;;11.43;2.92;;;8.60;99.90;;;;;;5092936;28;20036;-80
2022/05/30 00:04:47;;;;;;;5.90;2.20;;;8.60;99.90;;;;;;5096433;28;20035;-80
2022/05/30 00:07:16;;;;;;;10.55;2.50;;;8.60;99.90;;;;;;5096563;28;20466;-79
2022/05/30 00:09:41;;;;;;;8.25;2.25;;;8.50;99.90;;;;;;5080895;28;20039;-79
2022/05/30 00:12:13;;;;;;;6.40;1.85;;;8.50;99.90;;;;;;5077476;28;20160;-79
2022/05/30 00:14:39;;;;;;;7.63;2.30;;;8.50;99.90;;;;;;5078569;28;20054;-79
2022/05/30 00:17:05;;;;;;;4.47;1.63;;;8.40;99.90;;;;;;5078922;28;20048;-79
2022/05/30 00:19:31;;;;;;;7.13;1.70;;;8.40;99.90;;;;;;5081283;28;20043;-78
2022/05/30 00:21:56;;;;;;;8.20;2.13;;;8.30;99.90;;;;;;5098881;28;20052;-80
2022/05/30 00:24:23;;;;;;;9.80;2.30;;;8.30;99.90;;;;;;5083840;28;20039;-79
2022/05/30 00:26:48;;;;;;;7.28;2.20;;;8.20;99.90;;;;;;5099303;28;20054;-80
2022/05/30 00:29:14;;;;;;;11.15;2.30;;;8.10;99.90;;;;;;5084429;28;20407;-80
2022/05/30 00:31:40;;;;;;;7.25;2.30;;;8.10;99.90;;;;;;5100520;28;20134;-81
2022/05/30 00:34:06;;;;;;;7.50;2.13;;;8.10;99.90;;;;;;5083259;28;20042;-80
2022/05/30 00:36:32;;;;;;;8.38;2.50;;;8.00;99.90;;;;;;5100917;28;20043;-80
2022/05/30 00:38:57;;;;;;;8.02;2.28;;;8.00;99.90;;;;;;5105545;28;20138;-81
2022/05/30 00:41:23;;;;;;;17.88;2.88;;;7.90;99.90;;;;;;5080159;28;20569;-80
2022/05/30 00:43:49;;;;;;;9.52;2.40;;;7.90;99.90;;;;;;5102818;28;20055;-80
2022/05/30 00:46:18;;;;;;;8.02;2.05;;;7.80;99.90;;;;;;5101188;28;20040;-82
2022/05/30 00:49:02;;;;;;;7.53;2.45;;;7.80;99.90;;;;;;5098383;28;20095;-81
2022/05/30 00:51:32;;;;;;;7.88;2.45;;;7.80;99.90;;;;;;5079862;28;20071;-80
2022/05/30 00:54:01;;;;;;;5.97;2.42;;;7.80;99.90;;;;;;5080069;28;20044;-79
2022/05/30 00:56:35;;;;;;;7.72;2.80;;;7.80;99.90;;;;;;5081031;28;20048;-79
2022/05/30 00:59:03;;;;;;;5.10;2.33;;;7.80;99.90;;;;;;5082775;28;20123;-78
2022/05/30 01:01:31;;;;;;;7.40;2.72;;;7.70;99.90;;;;;;5100644;28;20124;-80
2022/05/30 01:06:47;;;;;;;6.65;2.60;;;7.70;99.90;;;;;;5101771;28;20050;-80
2022/05/30 01:09:17;;;;;;;7.05;2.35;;;7.70;99.90;;;;;;5081298;28;20052;-81
2022/05/30 01:11:47;;;;;;;8.80;2.75;;;7.80;99.90;;;;;;5102588;28;20047;-79
2022/05/30 01:14:14;;;;;;;7.40;2.90;;;7.70;99.90;;;;;;5077152;28;20050;-79
2022/05/30 01:16:40;;;;;;;7.60;2.22;;;7.70;99.90;;;;;;5078733;28;20483;-80
2022/05/30 01:19:17;;;;;;;7.50;2.40;;;7.80;99.90;;;;;;5082604;28;20109;-79
2022/05/30 01:22:01;;;;;;;9.57;2.63;;;7.80;99.90;;;;;;5101009;28;20118;-79
2022/05/30 01:24:43;;;;;;;5.65;2.42;;;7.80;99.90;;;;;;5101989;28;20043;-79
2022/05/30 01:27:44;;;;;;;8.95;3.03;;;7.80;99.90;;;;;;5083942;28;20058;-79
2022/05/30 01:30:13;;;;;;;10.93;3.00;;;7.80;99.90;;;;;;5043515;28;20071;-79
2022/05/30 01:32:39;;;;;;;6.70;2.78;;;7.80;99.90;;;;;;5099021;28;20066;-80
2022/05/30 01:35:06;;;;;;;6.20;2.90;;;7.80;99.90;;;;;;5084922;28;20055;-79
2022/05/30 01:37:31;;;;;;;9.60;2.80;;;7.80;99.90;;;;;;5100160;28;20063;-80
2022/05/30 01:39:57;;;;;;;8.50;2.53;;;7.80;99.90;;;;;;5083523;28;20070;-80
2022/05/30 01:42:23;;;;;;;8.20;2.75;;;7.80;99.90;;;;;;5077440;28;20047;-80
2022/05/30 01:44:48;;;;;;;10.63;2.50;;;7.80;99.90;;;;;;5102458;28;20202;-79
2022/05/30 01:47:14;;;;;;;10.93;3.00;;;7.80;99.90;;;;;;5097808;28;20126;-79
2022/05/30 01:49:40;;;;;;;8.38;2.70;;;7.80;99.90;;;;;;5103318;28;20044;-79
2022/05/30 01:52:06;;;;;;;7.93;3.05;;;7.90;99.90;;;;;;5081748;28;20101;-79
2022/05/30 01:54:32;;;;;;;8.23;2.33;;;7.90;99.90;;;;;;5084184;28;20059;-81
2022/05/30 01:56:58;;;;;;;9.77;2.10;;;7.90;99.90;;;;;;5101422;28;20740;-80
2022/05/30 01:59:23;;;;;;;8.25;2.33;;;7.80;99.90;;;;;;5077737;28;20070;-80
2022/05/30 02:01:49;;;;;;;7.00;2.53;;;7.80;99.90;;;;;;5085816;28;20035;-79
2022/05/30 02:04:16;;;;;;;7.18;2.83;;;7.70;99.90;;;;;;5077283;28;20448;-79
2022/05/30 02:06:42;;;;;;;7.45;2.92;;;7.70;99.90;;;;;;5076688;28;20047;-80
2022/05/30 02:09:08;;;;;;;7.55;2.90;;;7.70;99.90;;;;;;5099904;28;20043;-80
2022/05/30 02:11:34;;;;;;;9.15;3.25;;;7.70;99.90;;;;;;5100648;28;20643;-81
2022/05/30 02:14:00;;;;;;;5.85;2.65;;;7.70;99.90;;;;;;5081076;28;20051;-80
2022/05/30 02:19:10;;;;;;;7.43;2.47;;;7.80;99.90;;;;;;5095156;28;20054;-80
2022/05/30 02:21:36;;;;;;;7.82;2.50;;;7.80;99.90;;;;;;5096649;28;20039;-81
2022/05/30 02:24:04;;;;;;;6.85;2.83;;;7.90;99.90;;;;;;5080441;28;20476;-79
2022/05/30 02:26:30;;;;;;;7.97;2.58;;;7.90;99.90;;;;;;5082284;28;20093;-80
2022/05/30 02:28:56;;;;;;;6.40;2.25;;;7.90;99.90;;;;;;5073912;28;20560;-80
2022/05/30 02:31:21;;;;;;;9.25;2.30;;;7.90;99.90;;;;;;5099854;28;20036;-80
2022/05/30 02:36:41;;;;;;;6.50;2.60;;;8.00;99.90;;;;;;5095390;28;20051;-79
2022/05/30 02:39:19;;;;;;;4.88;2.40;;;8.10;99.90;;;;;;5100872;28;20039;-78
2022/05/30 02:41:46;;;;;;;8.55;3.50;;;8.10;99.90;;;;;;5104105;28;20044;-79
2022/05/30 02:44:12;;;;;;;6.82;3.05;;;8.10;99.90;;;;;;5104393;28;20101;-79
2022/05/30 02:46:38;;;;;;;7.55;2.60;;;8.10;99.90;;;;;;5083552;28;20043;-79
2022/05/30 02:49:04;;;;;;;6.25;2.65;;;8.10;99.90;;;;;;5083800;27;20054;-78
2022/05/30 02:51:31;;;;;;;6.40;2.38;;;8.10;99.90;;;;;;5083024;28;20055;-79
2022/05/30 02:53:57;;;;;;;10.10;2.65;;;8.10;99.90;;;;;;5085960;28;20075;-79
2022/05/30 02:56:23;;;;;;;7.22;2.83;;;8.10;99.90;;;;;;5105119;28;20502;-79
2022/05/30 02:58:49;;;;;;;7.55;2.83;;;8.10;99.90;;;;;;5088724;28;20056;-80
2022/05/30 03:01:16;;;;;;;6.30;2.63;;;8.10;99.90;;;;;;5100323;28;20031;-80
2022/05/30 03:03:42;;;;;;;7.03;2.70;;;8.10;99.90;;;;;;5105383;28;20056;-80
2022/05/30 03:06:08;;;;;;;5.47;2.85;;;8.10;99.90;;;;;;5081689;28;20478;-78
2022/05/30 03:08:34;;;;;;;6.30;2.70;;;8.10;99.90;;;;;;5104081;28;20093;-79
2022/05/30 03:11:00;;;;;;;5.95;2.90;;;8.10;99.90;;;;;;5107700;28;20104;-80
2022/05/30 03:13:25;;;;;;;7.90;3.03;;;8.10;99.90;;;;;;5103232;28;20644;-78
2022/05/30 03:15:51;;;;;;;4.13;2.72;;;8.10;99.90;;;;;;5085442;28;20102;-80
2022/05/30 03:18:17;;;;;;;6.22;2.65;;;8.10;99.90;;;;;;5101696;28;20040;-79
2022/05/30 03:20:42;;;;;;;7.45;3.08;;;8.20;99.90;;;;;;5085607;28;20050;-79
2022/05/30 03:23:08;;;;;;;6.07;2.70;;;8.20;99.90;;;;;;5102461;28;20043;-79
2022/05/30 03:25:34;;;;;;;6.22;2.58;;;8.20;99.90;;;;;;5101683;28;20066;-79
2022/05/30 03:28:00;;;;;;;7.28;3.00;;;8.20;99.90;;;;;;5104703;28;20047;-80
2022/05/30 03:30:26;;;;;;;11.43;2.60;;;8.20;99.90;;;;;;5098962;28;20052;-81
2022/05/30 03:32:52;;;;;;;6.75;2.70;;;8.10;99.90;;;;;;5106421;28;20039;-79
2022/05/30 03:35:18;;;;;;;7.63;2.47;;;8.20;99.90;;;;;;5102837;28;20039;-79
2022/05/30 03:37:44;;;;;;;9.40;2.40;;;8.20;99.90;;;;;;5101883;28;20074;-80
2022/05/30 03:40:13;;;;;;;6.35;2.42;;;8.20;99.90;;;;;;5099051;28;20536;-79
2022/05/30 03:42:38;;;;;;;6.85;1.95;;;8.20;99.90;;;;;;5102061;28;20430;-79
2022/05/30 03:45:05;;;;;;;7.25;2.20;;;8.20;99.90;;;;;;5084876;28;20051;-79
2022/05/30 03:47:39;;;;;;;7.00;1.85;;;8.30;99.90;;;;;;5103937;28;20039;-79
2022/05/30 03:50:06;;;;;;;6.20;1.92;;;8.30;99.90;;;;;;5099345;28;21321;-78
2022/05/30 03:52:34;;;;;;;4.35;1.70;;;8.30;99.90;;;;;;5083645;28;20517;-80
2022/05/30 03:55:19;;;;;;;7.75;1.83;;;8.40;99.90;;;;;;5081784;28;20039;-78
2022/05/30 03:57:45;;;;;;;6.22;1.80;;;8.30;99.90;;;;;;5101554;28;20498;-80
2022/05/30 04:00:14;;;;;;;5.60;1.88;;;8.40;99.90;;;;;;5102967;28;20040;-79
2022/05/30 04:02:40;;;;;;;4.45;1.92;;;8.40;99.90;;;;;;5082521;28;20044;-79
2022/05/30 04:05:08;;;;;;;12.10;2.20;;;8.40;99.90;;;;;;5079786;28;20043;-77
2022/05/30 04:07:35;;;;;;;5.00;1.80;;;8.50;99.90;;;;;;5080948;28;20096;-78
2022/05/30 04:10:01;;;;;;;5.28;2.00;;;8.50;99.90;;;;;;5100634;28;20040;-75
2022/05/30 04:12:26;;;;;;;5.40;2.17;;;8.50;99.90;;;;;;5103015;28;20047;-80
2022/05/30 04:14:57;;;;;;;5.80;1.80;;;8.50;99.90;;;;;;5085839;28;20292;-79
2022/05/30 04:17:24;;;;;;;5.70;1.70;;;8.60;99.90;;;;;;5101574;28;20047;-79
2022/05/30 04:19:50;;;;;;;5.43;1.92;;;8.60;99.90;;;;;;5084721;28;20131;-78
2022/05/30 04:22:16;;;;;;;5.35;1.70;;;8.60;99.90;;;;;;5082239;28;20047;-78
2022/05/30 04:24:42;;;;;;;3.40;1.20;;;8.60;99.90;;;;;;5081543;28;20059;-79
2022/05/30 04:27:08;;;;;;;4.30;1.20;;;8.70;99.90;;;;;;5081830;28;20131;-79
2022/05/30 04:29:34;;;;;;;3.17;1.48;;;8.70;99.90;;;;;;5100573;28;20107;-79
2022/05/30 04:32:01;;;;;;;3.08;1.15;;;8.70;99.90;;;;;;5085730;28;20104;-78
2022/05/30 04:34:27;;;;;;;4.55;1.63;;;8.70;99.90;;;;;;5100158;28;20578;-80
2022/05/30 04:36:53;;;;;;;3.25;1.63;;;8.70;99.90;;;;;;5104090;28;20111;-80
2022/05/30 04:39:18;;;;;;;3.67;1.40;;;8.80;99.90;;;;;;5083563;28;20154;-79
2022/05/30 04:41:44;;;;;;;5.07;1.55;;;8.80;99.90;;;;;;5082080;28;20068;-78
2022/05/30 04:44:09;;;;;;;4.00;1.50;;;8.80;99.90;;;;;;5109140;28;20046;-78
2022/05/30 04:46:35;;;;;;;6.50;1.73;;;8.80;99.90;;;;;;5083111;28;20039;-79
2022/05/30 04:49:01;;;;;;;4.72;1.60;;;8.80;99.90;;;;;;5085326;28;20417;-77
2022/05/30 04:51:27;;;;;;;5.60;1.73;;;8.80;99.90;;;;;;5083695;28;20518;-80
2022/05/30 04:53:53;;;;;;;7.00;1.90;;;8.70;99.90;;;;;;5084622;28;20047;-80
2022/05/30 04:56:19;;;;;;;3.47;1.75;;;8.80;99.90;;;;;;5081731;28;20368;-78
2022/05/30 04:58:49;;;;;;;4.50;1.90;;;8.80;99.90;;;;;;5083866;28;20035;-79
2022/05/30 05:01:16;;;;;;;5.80;1.90;;;8.90;99.90;;;;;;5072703;28;20063;-78
2022/05/30 05:03:43;;;;;;;5.85;2.03;;;9.00;99.90;;;;;;5089592;28;20043;-79
2022/05/30 05:06:18;;;;;;;3.97;1.95;;;9.10;99.90;;;;;;5075084;28;20105;-80
2022/05/30 05:09:18;;;;;;;8.55;2.40;;;9.20;99.90;;;;;;5079845;28;20059;-79
2022/05/30 05:11:46;;;;;;;6.97;1.80;;;9.40;99.90;;;;;;5089810;28;20127;-79
2022/05/30 05:14:13;;;;;;;3.95;1.70;;;9.50;99.90;;;;;;5100421;28;20605;-78
2022/05/30 05:16:39;;;;;;;2.75;1.50;;;9.70;99.90;;;;;;5104600;28;20119;-80
2022/05/30 05:19:05;;;;;;;3.53;1.38;;;9.80;99.90;;;;;;5106134;28;20043;-81
2022/05/30 05:21:34;;;;;;;5.65;1.35;;;10.00;99.90;;;;;;5101937;28;20047;-79
2022/05/30 05:24:01;;;;;;;6.20;1.45;;;10.10;99.90;;;;;;5098864;28;20035;-79
2022/05/30 05:26:27;;;;;;;3.10;1.23;;;10.20;99.90;;;;;;5101317;28;20099;-80
2022/05/30 05:28:55;;;;;;;3.38;1.30;;;10.40;99.90;;;;;;5093623;28;20505;-79
2022/05/30 05:31:34;;;;;;;7.03;1.40;;;10.50;99.90;;;;;;5098842;28;20052;-79
2022/05/30 05:34:03;;;;;;;4.55;1.30;;;10.60;99.90;;;;;;5081434;28;20506;-78
2022/05/30 05:36:31;;;;;;;6.30;1.45;;;10.80;99.90;;;;;;5101880;28;20044;-76
2022/05/30 05:38:57;;;;;;;3.33;1.27;;;10.90;99.90;;;;;;5105033;28;20055;-80
2022/05/30 05:41:23;;;;;;;3.28;1.20;;;11.00;99.90;;;;;;5100915;28;20052;-80
2022/05/30 05:43:50;;;;;;;4.03;1.70;;;11.20;99.90;;;;;;5097416;28;20066;-80
2022/05/30 05:46:18;;;;;;;3.80;1.27;;;11.40;99.90;;;;;;5104665;28;20040;-75
2022/05/30 05:48:44;;;;;;;3.05;1.10;;;11.60;99.90;;;;;;5082307;28;20142;-76
2022/05/30 05:51:13;;;;;;;5.53;1.48;;;11.70;99.90;;;;;;5100413;28;20059;-77
2022/05/30 05:53:40;;;;;;;4.70;1.05;;;11.80;99.90;;;;;;5086864;28;20058;-73
2022/05/30 05:56:14;;;;;;;2.80;1.00;;;11.90;99.90;;;;;;5098224;28;20036;-72
2022/05/30 05:58:40;;;;;;;2.70;1.00;;;12.00;99.90;;;;;;5100346;28;20042;-79
2022/05/30 06:01:11;;;;;;;4.65;1.10;;;12.20;99.90;;;;;;5101266;28;20164;-80
2022/05/30 06:03:37;;;;;;;4.57;1.00;;;12.20;99.90;;;;;;5100546;28;20056;-82
2022/05/30 06:06:04;;;;;;;4.22;1.20;;;12.20;99.90;;;;;;5104622;28;20051;-82
2022/05/30 06:08:30;;;;;;;3.83;0.98;;;12.20;99.90;;;;;;5083575;28;20040;-83
2022/05/30 06:11:05;;;;;;;3.80;1.02;;;12.10;99.90;;;;;;5082985;28;20044;-80
2022/05/30 06:13:32;;;;;;;3.30;0.80;;;11.90;99.90;;;;;;5092462;28;20560;-82
2022/05/30 06:15:58;;;;;;;4.13;0.95;;;11.80;99.90;;;;;;5088842;28;20043;-83
2022/05/30 06:18:23;;;;;;;3.42;1.00;;;11.70;99.90;;;;;;5104575;28;20050;-82
2022/05/30 06:20:49;;;;;;;3.88;1.00;;;11.50;99.90;;;;;;5104813;27;20706;-81
2022/05/30 06:23:14;;;;;;;2.47;0.80;;;11.50;99.90;;;;;;5087297;28;20111;-81
2022/05/30 06:25:42;;;;;;;3.80;0.90;;;11.40;99.90;;;;;;5093719;28;20051;-82
2022/05/30 06:28:08;;;;;;;3.25;0.93;;;11.40;99.90;;;;;;5092184;28;20043;-80
2022/05/30 06:30:36;;;;;;;2.38;0.80;;;11.40;99.90;;;;;;5112164;28;20067;-81
2022/05/30 06:33:01;;;;;;;3.63;0.90;;;11.30;99.90;;;;;;5091281;28;20074;-80
2022/05/30 06:35:27;;;;;;;2.00;0.80;;;11.40;99.90;;;;;;5080861;28;20487;-82
2022/05/30 06:37:53;;;;;;;2.58;1.25;;;11.70;99.90;;;;;;5084102;28;20063;-82
2022/05/30 06:40:18;;;;;;;1.90;0.80;;;12.00;99.90;;;;;;5082088;28;20522;-82
2022/05/30 06:42:44;;;;;;;3.25;0.95;;;12.20;99.90;;;;;;5083139;28;20036;-81
2022/05/30 06:45:12;;;;;;;3.03;0.80;;;12.40;99.90;;;;;;5084215;28;20216;-81
2022/05/30 06:47:38;;;;;;;3.75;0.80;;;12.60;99.90;;;;;;5103438;28;20100;-81
2022/05/30 06:50:04;;;;;;;2.20;0.80;;;12.70;99.90;;;;;;5106068;27;20433;-83
2022/05/30 06:52:30;;;;;;;1.45;0.70;;;13.00;99.90;;;;;;5102540;28;20558;-83
2022/05/30 06:54:56;;;;;;;2.65;0.68;;;13.10;99.90;;;;;;5085400;28;20643;-84
2022/05/30 07:00:06;;;;;;;4.18;0.90;;;12.90;99.90;;;;;;5082076;28;20042;-81
2022/05/30 07:02:32;;;;;;;2.50;0.98;;;12.80;99.90;;;;;;5093225;28;20096;-83
2022/05/30 07:04:58;;;;;;;1.45;0.60;;;12.70;99.90;;;;;;5100637;28;20047;-84
2022/05/30 07:07:23;;;;;;;2.78;0.85;;;12.60;99.90;;;;;;5092527;28;20078;-84
2022/05/30 07:09:49;;;;;;;3.40;0.73;;;12.60;99.90;;;;;;5110565;27;20040;-85
2022/05/30 07:12:16;;;;;;;5.55;1.35;;;12.60;99.90;;;;;;5111299;28;20067;-86
2022/05/30 07:14:41;;;;;;;2.42;0.90;;;12.70;99.90;;;;;;5094335;28;20096;-83
2022/05/30 07:17:10;;;;;;;3.25;0.80;;;12.80;99.90;;;;;;5111682;28;20035;-83
2022/05/30 07:19:36;;;;;;;2.80;0.85;;;12.90;99.90;;;;;;5092380;28;20495;-86
2022/05/30 07:22:03;;;;;;;3.33;0.90;;;13.00;99.90;;;;;;5084167;28;20139;-83
2022/05/30 07:24:29;;;;;;;2.30;0.73;;;13.00;99.90;;;;;;5087195;28;20124;-85
2022/05/30 07:26:55;;;;;;;1.75;0.60;;;13.00;99.90;;;;;;5088942;28;20044;-85
2022/05/30 07:29:20;;;;;;;1.50;0.50;;;13.10;99.90;;;;;;5084891;28;20044;-85
2022/05/30 07:31:46;;;;;;;3.47;0.85;;;13.00;99.90;;;;;;5090545;28;20285;-85
2022/05/30 07:34:12;;;;;;;2.42;0.60;;;13.00;99.90;;;;;;5088326;28;20127;-85
2022/05/30 07:36:38;;;;;;;2.05;0.60;;;13.00;99.90;;;;;;5092933;28;20054;-84
2022/05/30 07:39:04;;;;;;;3.40;0.88;;;13.10;99.90;;;;;;5104653;28;20050;-85
2022/05/30 07:41:31;;;;;;;1.52;0.70;;;13.10;99.90;;;;;;5091254;28;20047;-86
2022/05/30 07:43:57;;;;;;;2.60;0.70;;;13.20;99.90;;;;;;5074781;28;20515;-85
2022/05/30 07:46:25;;;;;;;4.35;0.60;;;13.10;99.90;;;;;;5091437;28;20035;-85
2022/05/30 07:48:51;;;;;;;3.05;0.80;;;13.10;99.90;;;;;;5092316;28;20048;-81
2022/05/30 07:51:17;;;;;;;2.67;0.85;;;13.20;99.90;;;;;;5108409;28;20177;-85
2022/05/30 07:53:46;;;;;;;2.15;0.80;;;13.20;99.90;;;;;;5111239;28;20130;-87
2022/05/30 07:56:17;;;;;;;2.65;0.80;;;13.30;99.90;;;;;;5096321;28;20047;-84
2022/05/30 07:58:46;;;;;;;1.98;0.73;;;13.40;99.90;;;;;;5117596;28;20059;-85
2022/05/30 08:01:14;;;;;;;4.15;0.90;;;13.50;99.90;;;;;;5113977;28;20429;-87
2022/05/30 08:03:41;;;;;;;3.92;0.90;;;13.60;99.90;;;;;;5095968;28;20036;-85
2022/05/30 08:06:28;;;;;;;2.28;0.60;;;13.70;99.90;;;;;;5088464;28;20074;-84
2022/05/30 08:08:53;;;;;;;3.35;0.90;;;14.00;99.90;;;;;;5088845;28;20044;-85
2022/05/30 08:11:20;;;;;;;3.47;0.70;;;14.30;99.90;;;;;;5103873;28;20549;-86
2022/05/30 08:13:46;;;;;;;3.10;0.80;;;14.70;99.90;;;;;;5092309;28;20062;-86
2022/05/30 08:16:23;;;;;;;4.20;0.88;;;14.90;99.90;;;;;;5087802;28;20384;-85
2022/05/30 08:18:48;;;;;;;5.07;0.95;;;15.30;99.90;;;;;;5091297;28;20039;-85
2022/05/30 08:21:16;;;;;;;4.57;1.05;;;15.50;99.90;;;;;;5107850;28;20036;-85
2022/05/30 08:23:42;;;;;;;4.85;1.08;;;15.90;99.90;;;;;;5110249;28;20505;-86
2022/05/30 08:26:08;;;;;;;4.32;0.93;;;15.90;99.90;;;;;;5108053;28;20365;-85
2022/05/30 08:28:34;;;;;;;3.15;1.20;;;15.60;99.90;;;;;;5092609;28;20045;-86
2022/05/30 08:31:01;;;;;;;6.10;0.73;;;15.50;99.90;;;;;;5076566;28;20127;-85
2022/05/30 08:33:27;;;;;;;3.08;0.90;;;15.30;99.90;;;;;;5089681;28;20127;-87
2022/05/30 08:36:08;;;;;;;1.80;0.70;;;15.20;99.90;;;;;;5092460;28;20039;-85
2022/05/30 08:38:36;;;;;;;4.68;1.33;;;15.20;99.90;;;;;;5097771;28;20173;-85
2022/05/30 08:43:54;;;;;;;3.13;1.00;;;15.50;99.90;;;;;;5109478;28;20039;-86
2022/05/30 08:46:35;;;;;;;5.72;1.30;;;15.40;99.90;;;;;;5089033;28;20063;-85
2022/05/30 08:49:28;;;;;;;2.17;1.05;;;15.10;99.90;;;;;;5072097;28;20059;-86
2022/05/30 08:52:18;;;;;;;2.22;0.82;;;14.60;99.90;;;;;;5109619;28;20040;-86
2022/05/30 08:55:22;;;;;;;4.18;0.88;;;14.40;99.90;;;;;;5096453;28;20055;-76
2022/05/30 08:57:54;;;;;;;2.80;0.90;;;14.20;99.90;;;;;;5088598;28;20043;-77
2022/05/30 09:00:46;;;;;;;3.45;0.88;;;13.90;99.90;;;;;;5109959;28;20572;-86
2022/05/30 09:03:36;;;;;;;4.72;0.85;;;13.70;99.90;;;;;;5109278;28;20628;-86
2022/05/30 09:06:56;;;;;;;1.98;0.73;;;13.90;99.90;;;;;;5092247;28;20039;-86
2022/05/30 09:09:40;;;;;;;5.72;1.15;;;14.10;99.90;;;;;;5008472;28;20056;-85
2022/05/30 09:12:08;;;;;;;2.95;1.00;;;14.20;99.90;;;;;;5010252;28;20467;-82
2022/05/30 09:14:43;;;;;;;3.53;0.95;;;14.30;99.90;;;;;;5075576;28;20043;-84
2022/05/30 09:17:17;;;;;;;8.32;1.35;;;14.50;99.90;;;;;;5088402;28;20047;-83
2022/05/30 09:19:43;;;;;;;5.55;0.90;;;14.50;99.90;;;;;;5079851;28;22627;-84
2022/05/30 09:22:09;;;;;;;1.77;0.90;;;14.40;99.90;;;;;;5087124;28;20505;-85
2022/05/30 09:24:36;;;;;;;2.00;0.60;;;14.30;99.90;;;;;;5083989;28;20088;-83
2022/05/30 09:27:03;;;;;;;2.10;0.93;;;14.30;99.90;;;;;;5087990;28;20329;-83
2022/05/30 09:29:40;;;;;;;2.35;0.85;;;14.20;99.90;;;;;;5072686;28;20067;-83
2022/05/30 09:32:36;;;;;;;3.50;0.90;;;14.20;99.90;;;;;;5106291;28;20099;-82
2022/05/30 09:35:28;;;;;;;3.60;1.33;;;14.10;99.90;;;;;;5083365;28;20044;-85
2022/05/30 09:38:11;;;;;;;4.78;1.00;;;14.10;99.90;;;;;;5112148;28;20039;-84
2022/05/30 09:40:51;;;;;;;4.50;1.27;;;14.00;99.90;;;;;;5089498;28;20062;-82
2022/05/30 09:43:26;;;;;;;3.72;1.55;;;14.10;99.90;;;;;;5107022;28;20036;-84
2022/05/30 09:45:52;;;;;;;8.10;1.30;;;14.10;99.90;;;;;;5105232;28;20062;-84
2022/05/30 09:48:19;;;;;;;4.43;1.55;;;14.10;99.90;;;;;;5093557;28;20036;-85
2022/05/30 09:50:57;;;;;;;5.28;1.25;;;14.00;99.90;;;;;;5107635;28;20035;-86
2022/05/30 09:53:45;;;;;;;4.63;1.15;;;14.10;99.90;;;;;;5110631;28;20118;-86
2022/05/30 09:56:14;;;;;;;5.22;1.52;;;14.10;99.90;;;;;;5079675;28;20533;-85
2022/05/30 09:58:44;;;;;;;7.07;1.20;;;14.10;99.90;;;;;;5086899;28;20044;-86
2022/05/30 10:01:10;;;;;;;5.90;1.33;;;14.20;99.90;;;;;;5090469;28;20055;-86
2022/05/30 10:03:40;;;;;;;6.53;1.20;;;14.20;99.90;;;;;;5087373;28;20035;-87
2022/05/30 10:06:17;;;;;;;4.40;1.30;;;14.20;99.90;;;;;;5082187;28;20548;-87
2022/05/30 10:08:44;;;;;;;3.85;1.27;;;14.30;99.90;;;;;;5111220;28;20044;-86
2022/05/30 10:11:32;;;;;;;3.33;0.90;;;14.30;99.90;;;;;;5107164;28;20047;-86
2022/05/30 10:13:58;;;;;;;4.72;1.20;;;14.30;99.90;;;;;;5083264;28;20052;-86
2022/05/30 10:16:33;;;;;;;4.60;1.23;;;14.40;99.90;;;;;;5091121;28;20040;-88
2022/05/30 10:19:03;;;;;;;5.70;1.05;;;14.40;99.90;;;;;;5092366;28;20071;-86
2022/05/30 10:28:17;;;;;;;4.80;1.15;;;14.40;99.90;;;;;;5092164;28;20055;-84
2022/05/30 10:31:11;;;;;;;6.07;1.30;;;14.40;99.90;;;;;;5095666;28;20047;-84
2022/05/30 10:34:05;;;;;;;4.72;1.05;;;14.40;99.90;;;;;;5038376;28;20051;-84
2022/05/30 10:36:56;;;;;;;4.72;1.10;;;14.30;99.90;;;;;;5085979;28;20531;-84
2022/05/30 10:39:51;;;;;;;4.45;1.38;;;14.30;99.90;;;;;;5095711;28;20063;-84
2022/05/30 10:42:35;;;;;;;1.60;0.85;;;14.30;99.90;;;;;;5083225;27;20403;-85
2022/05/30 10:45:08;;;;;;;3.45;1.40;;;14.10;99.90;;;;;;5112261;28;20047;-85
2022/05/30 10:47:48;;;;;;;6.47;1.08;;;14.00;99.90;;;;;;5113067;27;20039;-86
2022/05/30 10:50:53;;;;;;;3.50;0.95;;;13.90;99.90;;;;;;5093056;28;20036;-85
2022/05/30 10:53:28;;;;;;;7.00;1.20;;;13.80;99.90;;;;;;5105579;28;20130;-80
2022/05/30 10:55:58;;;;;;;4.68;1.00;;;13.70;99.90;;;;;;5108953;27;20047;-85
2022/05/30 10:58:43;;;;;;;6.13;1.00;;;13.70;99.90;;;;;;5081056;28;20039;-84
2022/05/30 11:01:43;;;;;;;3.80;1.10;;;13.60;99.90;;;;;;5085686;28;20040;-84
2022/05/30 11:04:35;;;;;;;4.45;1.05;;;13.60;99.90;;;;;;5040053;28;20594;-83
2022/05/30 11:07:16;;;;;;;4.53;1.10;;;13.70;99.90;;;;;;5076189;28;20524;-80
2022/05/30 11:10:12;;;;;;;5.47;1.40;;;13.70;99.90;;;;;;5108556;28;20092;-85
2022/05/30 11:12:42;;;;;;;3.80;1.27;;;13.80;99.90;;;;;;5078362;28;20491;-84
2022/05/30 11:15:26;;;;;;;4.88;1.33;;;14.00;99.90;;;;;;5102449;28;20398;-85
2022/05/30 11:18:09;;;;;;;5.38;0.95;;;14.20;99.90;;;;;;5108342;28;20456;-85
2022/05/30 11:20:49;;;;;;;4.20;1.10;;;14.40;99.90;;;;;;5078604;27;20047;-85
2022/05/30 11:23:15;;;;;;;3.60;1.00;;;14.50;99.90;;;;;;5111020;28;20483;-85
2022/05/30 11:26:04;;;;;;;6.03;1.77;;;14.70;99.90;;;;;;5091384;28;20218;-83
2022/05/30 11:28:51;;;;;;;3.78;0.90;;;14.70;99.90;;;;;;5059713;28;20116;-84
2022/05/30 11:31:24;;;;;;;4.38;1.02;;;14.80;99.90;;;;;;5087658;28;20067;-84
2022/05/30 11:33:52;;;;;;;4.85;1.38;;;14.80;99.90;;;;;;5091556;28;20044;-85
2022/05/30 11:36:42;;;;;;;3.92;1.10;;;14.70;99.90;;;;;;5108370;28;20105;-85
2022/05/30 11:39:28;;;;;;;7.28;1.88;;;14.70;99.90;;;;;;5086565;28;20047;-79
2022/05/30 11:42:14;;;;;;;5.70;1.25;;;14.50;99.90;;;;;;5108324;28;20537;-80
2022/05/30 11:44:46;;;;;;;4.68;1.10;;;14.50;99.90;;;;;;5038056;28;20056;-80
2022/05/30 11:47:23;;;;;;;4.60;1.00;;;14.40;99.90;;;;;;5106886;28;20130;-80
2022/05/30 11:50:08;;;;;;;2.90;0.93;;;14.40;99.90;;;;;;5086529;28;20056;-80
2022/05/30 11:52:57;;;;;;;2.92;1.10;;;14.30;99.90;;;;;;5074785;28;20060;-79
2022/05/30 11:55:31;;;;;;;3.90;1.00;;;14.30;99.90;;;;;;5092228;28;20061;-77
2022/05/30 11:58:09;;;;;;;3.08;0.75;;;14.30;99.90;;;;;;5086442;28;20036;-79
2022/05/30 12:00:41;;;;;;;3.30;1.00;;;14.30;99.90;;;;;;5092970;28;20314;-80
2022/05/30 12:03:45;;;;;;;4.75;1.40;;;14.30;99.90;;;;;;5080925;28;20044;-79
2022/05/30 12:06:32;;;;;;;4.82;1.25;;;14.20;99.90;;;;;;5073335;28;20052;-80
2022/05/30 12:09:01;;;;;;;5.60;1.02;;;14.10;99.90;;;;;;5073982;28;20126;-81
2022/05/30 12:11:36;;;;;;;7.80;1.70;;;14.10;99.90;;;;;;5096629;28;20502;-79
2022/05/30 12:14:39;;;;;;;5.15;1.45;;;14.10;99.90;;;;;;5088063;28;20035;-81
2022/05/30 12:17:28;;;;;;;3.55;1.02;;;14.00;99.90;;;;;;5104826;28;20043;-79
2022/05/30 12:25:56;;;;;;;5.15;1.15;;;14.20;99.90;;;;;;5105457;28;20044;-79
2022/05/30 12:28:28;;;;;;;9.73;1.27;;;14.30;99.90;;;;;;5085539;28;20047;-81
2022/05/30 12:31:05;;;;;;;5.03;1.15;;;14.50;99.90;;;;;;5107171;28;20074;-81
2022/05/30 12:33:31;;;;;;;7.97;1.17;;;14.60;99.90;;;;;;5087868;28;20050;-81
2022/05/30 12:36:08;;;;;;;5.63;1.80;;;14.80;99.90;;;;;;5085844;28;20043;-81
2022/05/30 12:39:02;;;;;;;5.35;1.52;;;15.10;99.90;;;;;;5087589;28;20044;-82
2022/05/30 12:41:36;;;;;;;4.85;1.20;;;15.30;99.90;;;;;;5081547;28;20070;-82
2022/05/30 12:44:02;;;;;;;5.60;1.00;;;15.40;99.90;;;;;;5077813;28;20048;-81
2022/05/30 12:46:47;;;;;;;2.17;0.77;;;15.60;99.90;;;;;;5104301;28;20106;-81
2022/05/30 12:49:28;;;;;;;2.97;0.90;;;15.70;99.90;;;;;;5083311;28;20086;-81
2022/05/30 12:52:14;;;;;;;2.92;0.88;;;15.90;99.90;;;;;;5099808;28;20047;-81
2022/05/30 12:54:58;;;;;;;6.00;0.80;;;16.20;99.90;;;;;;5082575;28;20362;-81
2022/05/30 12:57:42;;;;;;;4.28;1.00;;;16.40;99.90;;;;;;5086005;28;20051;-82
2022/05/30 13:00:16;;;;;;;2.45;0.80;;;16.40;99.90;;;;;;5085680;28;20307;-80
2022/05/30 13:02:49;;;;;;;4.72;1.17;;;16.50;99.90;;;;;;5099412;28;20039;-81
2022/05/30 13:05:43;;;;;;;4.30;0.82;;;16.70;99.90;;;;;;5087440;28;20130;-82
2022/05/30 13:08:46;;;;;;;1.83;0.70;;;16.60;99.90;;;;;;5075117;28;20052;-79
2022/05/30 13:11:22;;;;;;;5.23;1.00;;;16.50;99.90;;;;;;5088044;28;20051;-80
2022/05/30 13:13:53;;;;;;;4.47;0.90;;;16.30;99.90;;;;;;5109175;28;20665;-80
2022/05/30 13:16:33;;;;;;;1.88;1.20;;;16.10;99.90;;;;;;5106289;28;20526;-77
2022/05/30 13:19:00;;;;;;;2.55;1.08;;;15.80;99.90;;;;;;5106831;28;20409;-78
2022/05/30 13:21:28;;;;;;;3.00;1.23;;;15.70;99.90;;;;;;5088801;28;20131;-78
2022/05/30 13:23:54;;;;;;;5.90;1.10;;;15.60;99.90;;;;;;5087194;28;20048;-79
2022/05/30 13:26:20;;;;;;;2.92;0.90;;;15.60;99.90;;;;;;5097948;28;20109;-78
2022/05/30 13:28:49;;;;;;;3.03;1.10;;;15.70;99.90;;;;;;5104862;28;20038;-79
2022/05/30 13:31:15;;;;;;;5.32;1.02;;;15.70;99.90;;;;;;5086508;28;20072;-76
2022/05/30 13:33:48;;;;;;;3.22;0.80;;;15.70;99.90;;;;;;5080469;28;20140;-77
2022/05/30 13:36:23;;;;;;;;;;;15.60;99.90;;;;;;5077614;28;20059;-78
2022/05/30 13:38:52;;;;;;;5.13;1.08;;;15.50;99.90;;;;;;5099827;28;20402;-78
2022/05/30 13:41:28;;;;;;;4.72;0.90;;;15.30;99.90;;;;;;5077663;28;20540;-78